Terminal Aerodrome Forecast
Issued by NWS Quad Cities IA IL

Home | Current Version | Previous Version | Text Only | Print | Product List | Glossary On
Versions: 1 2 3 4 5 6 7 8 9 10 11 12 13 14 15 16 17 18 19 20 21 22 23 24 25
000
FTUS43 KDVN 140927 AAB
TAFMLI
TAF AMD
KMLI 140927Z 1409/1506 07007KT 4SM BR VCSH SCT004 OVC040
      TEMPO 1409/1412 2SM BR BKN004
     FM141500 12005KT 2SM SHRA VCTS OVC008CB
     FM141900 17007KT 6SM HZ VCTS BKN020CB OVC150
     FM150200 22012G24KT 1SM TSRA BKN009CB OVC020
     FM150500 30015G25KT P6SM VCSH OVC009=

USA.gov is the U.S. government's official web portal to all federal, state and local government web resources and services.